createdAt,value
2022-12-14T00:00:57.355Z,24.30
2022-12-14T00:03:14.692Z,27.50
2022-12-14T00:05:32.117Z,28.90
2022-12-14T00:07:49.430Z,25.08
2022-12-14T00:10:06.389Z,23.92
2022-12-14T00:12:23.745Z,24.52
2022-12-14T00:14:43.705Z,26.23
2022-12-14T00:17:01.074Z,25.98
2022-12-14T00:19:19.384Z,24.98
2022-12-14T00:21:36.450Z,22.55
2022-12-14T00:23:54.792Z,26.08
2022-12-14T00:26:12.037Z,26.70
2022-12-14T00:28:29.395Z,22.48
2022-12-14T00:30:47.008Z,23.60
2022-12-14T00:33:04.150Z,27.98
2022-12-14T00:35:21.076Z,25.05
2022-12-14T00:37:38.073Z,24.13
2022-12-14T00:39:55.151Z,25.23
2022-12-14T00:42:12.112Z,24.23
2022-12-14T00:44:29.100Z,27.10
2022-12-14T00:46:46.006Z,24.58
2022-12-14T00:49:04.069Z,25.02
2022-12-14T00:51:22.164Z,26.38
2022-12-14T00:53:39.102Z,28.80
2022-12-14T00:55:56.221Z,22.02
2022-12-14T00:58:13.162Z,23.38
2022-12-14T01:00:30.206Z,24.50
2022-12-14T01:02:47.258Z,26.85
2022-12-14T01:05:04.497Z,24.42
2022-12-14T01:07:21.438Z,23.27
2022-12-14T01:09:38.507Z,24.60
2022-12-14T01:11:56.728Z,25.85
2022-12-14T01:14:14.049Z,22.98
2022-12-14T01:16:32.119Z,22.42
2022-12-14T01:18:49.242Z,23.42
2022-12-14T01:21:07.224Z,22.83
2022-12-14T01:23:24.729Z,23.73
2022-12-14T01:25:42.234Z,25.80
2022-12-14T01:27:59.522Z,24.05
2022-12-14T01:30:16.609Z,21.45
2022-12-14T01:32:33.642Z,23.25
2022-12-14T01:34:51.729Z,27.52
2022-12-14T01:37:09.684Z,24.73
2022-12-14T01:39:26.645Z,24.98
2022-12-14T01:41:43.636Z,22.15
2022-12-14T01:44:00.976Z,21.88
2022-12-14T01:46:18.009Z,22.65
2022-12-14T01:48:34.997Z,22.67
2022-12-14T01:50:52.882Z,25.33
2022-12-14T01:53:10.137Z,20.08
2022-12-14T01:55:27.099Z,24.20
2022-12-14T01:57:44.449Z,23.70
2022-12-14T02:00:06.850Z,21.38
2022-12-14T02:02:24.270Z,21.00
2022-12-14T02:04:41.264Z,25.88
2022-12-14T02:07:01.263Z,22.95
2022-12-14T02:09:18.433Z,22.65
2022-12-14T02:11:35.741Z,22.50
2022-12-14T02:13:52.741Z,23.23
2022-12-14T02:16:10.076Z,24.45
2022-12-14T02:18:27.773Z,22.23
2022-12-14T02:20:44.758Z,19.83
2022-12-14T02:23:02.031Z,24.23
2022-12-14T02:25:18.997Z,19.45
2022-12-14T02:27:35.917Z,24.77
2022-12-14T02:29:52.989Z,22.45
2022-12-14T02:32:09.907Z,20.00
2022-12-14T02:34:26.971Z,22.13
2022-12-14T02:36:44.263Z,21.58
2022-12-14T02:39:01.272Z,22.52
2022-12-14T02:41:18.318Z,25.38
2022-12-14T02:43:35.588Z,21.75
2022-12-14T02:45:52.640Z,24.33
2022-12-14T02:48:09.773Z,20.10
2022-12-14T02:50:26.747Z,23.17
2022-12-14T02:52:43.954Z,21.10
2022-12-14T02:55:00.954Z,19.15
2022-12-14T02:57:18.171Z,22.48
2022-12-14T02:59:35.196Z,23.92
2022-12-14T03:01:53.336Z,20.92
2022-12-14T03:04:11.499Z,20.33
2022-12-14T03:06:28.481Z,20.10
2022-12-14T03:08:45.566Z,20.70
2022-12-14T03:11:02.643Z,21.35
2022-12-14T03:13:19.717Z,20.80
2022-12-14T03:15:36.917Z,20.40
2022-12-14T03:17:54.291Z,20.70
2022-12-14T03:20:11.592Z,20.08
2022-12-14T03:22:28.737Z,19.48
2022-12-14T03:24:46.792Z,20.33
2022-12-14T03:27:04.799Z,21.23
2022-12-14T03:29:22.022Z,18.90
2022-12-14T03:31:38.985Z,22.88
2022-12-14T03:33:56.298Z,22.13
2022-12-14T03:36:13.333Z,20.77
2022-12-14T03:38:30.259Z,19.35
2022-12-14T03:40:48.546Z,20.42
2022-12-14T03:43:05.525Z,20.73
2022-12-14T03:45:23.902Z,20.55
2022-12-14T03:47:40.913Z,21.83
2022-12-14T03:49:58.963Z,22.00
2022-12-14T03:52:16.064Z,19.52
2022-12-14T03:54:34.292Z,21.00
2022-12-14T03:56:53.321Z,20.00
2022-12-14T03:59:10.506Z,20.67
2022-12-14T04:01:28.641Z,20.00
2022-12-14T04:03:45.698Z,21.00
2022-12-14T04:06:02.995Z,19.73
2022-12-14T04:08:20.012Z,20.92
2022-12-14T04:10:37.385Z,20.50
2022-12-14T04:12:55.338Z,19.08
2022-12-14T04:15:12.308Z,22.55
2022-12-14T04:17:29.180Z,21.23
2022-12-14T04:19:49.630Z,19.17
2022-12-14T04:22:06.758Z,20.55
2022-12-14T04:24:23.798Z,20.75
2022-12-14T04:26:41.998Z,22.17
2022-12-14T04:28:59.117Z,21.05
2022-12-14T04:31:16.554Z,21.80
2022-12-14T04:33:33.935Z,24.10
2022-12-14T04:35:50.998Z,19.77
2022-12-14T04:38:08.407Z,19.83
2022-12-14T04:40:25.354Z,18.35
2022-12-14T04:42:42.646Z,19.95
2022-12-14T04:45:01.265Z,24.15
2022-12-14T04:47:18.607Z,18.48
2022-12-14T04:49:35.659Z,20.83
2022-12-14T04:51:52.594Z,20.45
2022-12-14T04:54:09.959Z,19.95
2022-12-14T04:56:26.833Z,21.30
2022-12-14T04:58:43.934Z,21.08
2022-12-14T05:01:00.881Z,19.25
2022-12-14T05:03:18.154Z,20.25
2022-12-14T05:05:35.512Z,20.10
2022-12-14T05:07:52.505Z,19.75
2022-12-14T05:10:09.578Z,23.52
2022-12-14T05:12:26.543Z,22.00
2022-12-14T05:14:44.517Z,21.60
2022-12-14T05:17:07.950Z,22.00
2022-12-14T05:19:25.996Z,18.60
2022-12-14T05:21:43.346Z,21.33
2022-12-14T05:24:00.308Z,24.27
2022-12-14T05:26:18.356Z,21.33
2022-12-14T05:28:35.348Z,20.35
2022-12-14T05:30:52.795Z,20.55
2022-12-14T05:33:11.317Z,21.23
2022-12-14T05:35:28.653Z,21.65
2022-12-14T05:37:45.712Z,20.88
2022-12-14T05:40:06.445Z,19.75
2022-12-14T05:42:23.562Z,19.75
2022-12-14T05:44:40.525Z,20.90
2022-12-14T05:46:57.793Z,20.83
2022-12-14T05:49:14.832Z,21.00
2022-12-14T05:51:31.920Z,22.92
2022-12-14T05:53:49.043Z,25.38
2022-12-14T05:56:06.098Z,22.00
2022-12-14T05:58:23.103Z,22.80
2022-12-14T06:00:40.089Z,22.50
2022-12-14T06:02:57.542Z,22.83
2022-12-14T06:05:14.439Z,24.80
2022-12-14T06:07:31.650Z,21.30
2022-12-14T06:09:48.727Z,25.63
2022-12-14T06:12:06.858Z,23.25
2022-12-14T06:14:23.812Z,23.08
2022-12-14T06:16:41.849Z,23.50
2022-12-14T06:18:59.030Z,20.63
2022-12-14T06:21:16.008Z,20.35
2022-12-14T06:23:33.103Z,23.92
2022-12-14T06:25:50.428Z,23.20
2022-12-14T06:28:08.511Z,30.58
2022-12-14T06:30:25.511Z,29.35
2022-12-14T06:32:42.541Z,27.42
2022-12-14T06:34:59.637Z,26.02
2022-12-14T06:37:16.956Z,24.30
2022-12-14T06:39:33.984Z,25.15
2022-12-14T06:41:51.406Z,30.23
2022-12-14T06:44:09.494Z,26.70
2022-12-14T06:46:26.811Z,26.35
2022-12-14T06:48:44.112Z,26.48
2022-12-14T06:51:01.380Z,25.58
2022-12-14T06:53:18.725Z,31.27
2022-12-14T06:55:36.016Z,29.70
2022-12-14T06:57:52.940Z,28.40
2022-12-14T07:00:09.898Z,30.17
2022-12-14T07:02:27.082Z,31.85
2022-12-14T07:04:44.550Z,30.05
2022-12-14T07:07:01.486Z,34.38
2022-12-14T07:09:18.421Z,35.08
2022-12-14T07:11:35.312Z,32.08
2022-12-14T07:13:52.213Z,27.58
2022-12-14T07:16:09.200Z,30.20
2022-12-14T07:18:26.515Z,44.30
2022-12-14T07:20:44.710Z,35.90
2022-12-14T07:23:01.668Z,28.45
2022-12-14T07:25:18.742Z,31.63
2022-12-14T07:27:36.060Z,25.75
2022-12-14T07:29:54.119Z,26.35
2022-12-14T07:32:12.024Z,35.63
2022-12-14T07:34:29.047Z,29.80
2022-12-14T07:36:46.021Z,28.05
2022-12-14T07:39:02.954Z,25.80
2022-12-14T07:41:22.769Z,25.42
2022-12-14T07:43:40.616Z,25.25
2022-12-14T07:45:57.585Z,25.45
2022-12-14T07:48:14.641Z,22.80
2022-12-14T07:50:31.755Z,24.27
2022-12-14T07:52:48.706Z,25.17
2022-12-14T07:55:05.643Z,24.90
2022-12-14T07:57:22.528Z,24.98
2022-12-14T07:59:39.465Z,23.67
2022-12-14T08:01:56.593Z,24.88
2022-12-14T08:04:13.837Z,22.02
2022-12-14T08:06:30.959Z,23.55
2022-12-14T08:08:48.015Z,22.23
2022-12-14T08:11:06.104Z,21.10
2022-12-14T08:13:23.328Z,21.83
2022-12-14T08:15:40.279Z,21.23
2022-12-14T08:17:57.647Z,22.52
2022-12-14T08:20:14.955Z,21.35
2022-12-14T08:22:31.982Z,22.73
2022-12-14T08:24:49.558Z,25.80
2022-12-14T08:27:06.922Z,22.83
2022-12-14T08:29:23.937Z,22.08
2022-12-14T08:31:41.264Z,21.00
2022-12-14T08:33:58.594Z,21.02
2022-12-14T08:36:15.737Z,24.25
2022-12-14T08:38:33.038Z,25.30
2022-12-14T08:40:50.375Z,20.67
2022-12-14T08:43:07.607Z,27.88
2022-12-14T08:45:24.942Z,24.38
2022-12-14T08:47:42.025Z,26.30
2022-12-14T08:49:59.053Z,31.90
2022-12-14T08:52:16.357Z,23.80
2022-12-14T08:54:33.496Z,24.00
2022-12-14T08:56:50.818Z,25.27
2022-12-14T08:59:07.866Z,26.05
2022-12-14T09:01:32.089Z,24.33
2022-12-14T09:03:50.660Z,24.77
2022-12-14T09:06:07.805Z,29.25
2022-12-14T09:08:24.831Z,24.50
2022-12-14T09:10:41.885Z,26.33
2022-12-14T09:12:59.233Z,24.10
2022-12-14T09:15:16.126Z,26.45
2022-12-14T09:17:33.084Z,24.13
2022-12-14T09:19:50.324Z,23.80
2022-12-14T09:22:07.384Z,24.15
2022-12-14T09:24:24.517Z,25.85
2022-12-14T09:26:41.796Z,31.23
2022-12-14T09:28:58.792Z,29.75
2022-12-14T09:31:16.044Z,34.08
2022-12-14T09:33:34.511Z,26.88
2022-12-14T09:35:51.860Z,27.48
2022-12-14T09:38:08.763Z,39.58
2022-12-14T09:40:26.111Z,33.97
2022-12-14T09:42:43.084Z,66.03
2022-12-14T09:45:07.535Z,35.20
2022-12-14T09:47:24.790Z,31.52
2022-12-14T09:49:41.874Z,28.80
2022-12-14T09:51:58.884Z,25.67
2022-12-14T09:54:16.166Z,23.30
2022-12-14T09:56:33.154Z,30.40
2022-12-14T09:58:50.201Z,25.33
2022-12-14T10:01:07.288Z,25.42
2022-12-14T10:03:24.359Z,24.02
2022-12-14T10:05:41.506Z,40.15
2022-12-14T10:07:58.598Z,41.30
2022-12-14T10:10:15.431Z,27.77
2022-12-14T10:12:34.441Z,28.40
2022-12-14T10:14:51.727Z,27.48
2022-12-14T10:17:08.758Z,26.73
2022-12-14T10:19:25.861Z,24.92
2022-12-14T10:21:43.164Z,27.50
2022-12-14T10:24:00.260Z,27.38
2022-12-14T10:26:17.607Z,24.55
2022-12-14T10:28:34.667Z,26.13
2022-12-14T10:30:51.750Z,24.27
2022-12-14T10:33:08.759Z,24.67
2022-12-14T10:35:26.074Z,23.65
2022-12-14T10:37:43.067Z,25.23
2022-12-14T10:40:00.143Z,26.33
2022-12-14T10:42:17.227Z,26.25
2022-12-14T10:44:34.328Z,24.48
2022-12-14T10:46:51.369Z,26.08
2022-12-14T10:49:08.398Z,25.95
2022-12-14T10:51:25.327Z,25.50
2022-12-14T10:53:42.603Z,26.08
2022-12-14T10:56:00.494Z,27.58
2022-12-14T10:58:17.542Z,26.70
2022-12-14T11:00:34.613Z,24.60
2022-12-14T11:02:52.097Z,26.63
2022-12-14T11:05:09.242Z,28.23
2022-12-14T11:07:26.307Z,30.80
2022-12-14T11:09:43.205Z,33.35
2022-12-14T11:12:00.217Z,28.73
2022-12-14T11:14:17.543Z,26.42
2022-12-14T11:16:36.671Z,25.90
2022-12-14T11:18:54.285Z,28.85
2022-12-14T11:21:11.358Z,28.90
2022-12-14T11:23:29.372Z,27.88
2022-12-14T11:25:47.688Z,23.75
2022-12-14T11:28:04.699Z,24.25
2022-12-14T11:30:22.144Z,22.30
2022-12-14T11:32:39.119Z,22.75
2022-12-14T11:34:56.373Z,25.25
2022-12-14T11:37:13.346Z,27.13
2022-12-14T11:39:30.597Z,23.90
2022-12-14T11:41:48.539Z,25.60
2022-12-14T11:44:05.863Z,24.17
2022-12-14T11:46:23.533Z,21.83
2022-12-14T11:48:40.545Z,23.42
2022-12-14T11:50:57.594Z,26.42
2022-12-14T11:53:14.609Z,27.67
2022-12-14T11:55:31.691Z,29.25
2022-12-14T11:57:48.616Z,27.02
2022-12-14T12:00:05.878Z,34.92
2022-12-14T12:02:23.290Z,29.92
2022-12-14T12:04:40.571Z,28.60
2022-12-14T12:07:02.863Z,26.88
2022-12-14T12:11:38.524Z,28.38
2022-12-14T12:13:55.840Z,27.40
2022-12-14T12:16:13.202Z,24.77
2022-12-14T12:18:30.831Z,25.73
2022-12-14T12:20:48.074Z,26.27
2022-12-14T12:23:06.201Z,26.60
2022-12-14T12:25:27.536Z,34.40
2022-12-14T12:27:45.615Z,44.38
2022-12-14T12:30:02.933Z,43.08
2022-12-14T12:32:21.178Z,52.63
2022-12-14T12:34:38.256Z,38.80
2022-12-14T12:37:24.648Z,31.40
2022-12-14T12:39:32.260Z,32.42
2022-12-14T12:41:50.450Z,36.80
2022-12-14T12:44:07.520Z,33.28
2022-12-14T12:46:24.543Z,30.70
2022-12-14T12:48:41.927Z,29.88
2022-12-14T12:50:58.874Z,28.20
2022-12-14T12:53:15.859Z,29.45
2022-12-14T12:55:33.033Z,29.58
2022-12-14T12:57:50.080Z,32.80
2022-12-14T13:00:07.333Z,27.40
2022-12-14T13:02:24.381Z,30.02
2022-12-14T13:04:41.867Z,28.33
2022-12-14T13:06:58.989Z,31.42
2022-12-14T13:09:16.727Z,33.10
2022-12-14T13:11:33.837Z,31.27
2022-12-14T13:13:51.849Z,29.02
2022-12-14T13:16:09.212Z,25.73
2022-12-14T13:18:56.584Z,32.47
2022-12-14T13:21:03.878Z,31.02
2022-12-14T13:23:44.297Z,28.33
2022-12-14T13:25:58.189Z,26.17
2022-12-14T13:28:15.184Z,30.92
2022-12-14T13:30:32.446Z,27.50
2022-12-14T13:32:49.704Z,27.60
2022-12-14T13:35:06.595Z,26.35
2022-12-14T13:37:23.583Z,28.88
2022-12-14T13:39:41.922Z,27.77
2022-12-14T13:41:59.309Z,26.80
2022-12-14T13:44:16.546Z,26.73
2022-12-14T13:46:33.557Z,24.83
2022-12-14T13:48:50.814Z,25.25
2022-12-14T13:51:08.127Z,24.92
2022-12-14T13:53:25.069Z,25.58
2022-12-14T13:55:41.973Z,21.17
2022-12-14T13:57:58.986Z,24.00
2022-12-14T14:00:16.193Z,26.60
2022-12-14T14:02:33.188Z,30.70
2022-12-14T14:04:50.208Z,28.33
2022-12-14T14:07:07.172Z,30.67
2022-12-14T14:09:24.529Z,26.20
2022-12-14T14:11:41.812Z,28.92
2022-12-14T14:13:58.847Z,31.65
2022-12-14T14:16:31.089Z,30.45
2022-12-14T14:18:48.117Z,35.92
2022-12-14T14:21:05.144Z,42.80
2022-12-14T14:23:23.122Z,31.27
2022-12-14T14:25:41.500Z,30.13
2022-12-14T14:27:58.597Z,27.05
2022-12-14T14:30:15.629Z,28.35
2022-12-14T14:32:32.601Z,28.95
2022-12-14T14:34:49.925Z,25.38
2022-12-14T14:37:07.493Z,28.25
2022-12-14T14:39:54.553Z,25.08
2022-12-14T14:42:01.742Z,26.70
2022-12-14T14:44:19.575Z,30.15
2022-12-14T14:46:36.614Z,32.38
2022-12-14T14:48:53.703Z,35.17
2022-12-14T14:51:10.613Z,28.40
2022-12-14T14:53:27.660Z,27.77
2022-12-14T14:55:54.249Z,43.42
2022-12-14T14:58:11.684Z,31.92
2022-12-14T15:00:29.029Z,26.27
2022-12-14T15:02:46.440Z,26.52
2022-12-14T15:05:40.525Z,30.42
2022-12-14T15:07:40.863Z,28.15
2022-12-14T15:09:57.825Z,31.48
2022-12-14T15:12:14.761Z,41.83
2022-12-14T15:14:31.746Z,40.13
2022-12-14T15:16:49.060Z,32.35
2022-12-14T15:19:06.119Z,33.53
2022-12-14T15:21:23.422Z,29.20
2022-12-14T15:23:40.317Z,27.80
2022-12-14T15:25:57.331Z,30.23
2022-12-14T15:28:15.521Z,32.60
2022-12-14T15:30:32.511Z,34.10
2022-12-14T15:32:49.433Z,28.92
2022-12-14T15:35:06.551Z,28.20
2022-12-14T15:37:23.585Z,26.50
2022-12-14T15:39:40.496Z,24.38
2022-12-14T15:41:57.541Z,29.52
2022-12-14T15:44:14.524Z,29.45
2022-12-14T15:46:32.482Z,26.45
2022-12-14T15:48:50.851Z,27.00
2022-12-14T15:51:09.237Z,29.85
2022-12-14T15:53:26.268Z,28.90
2022-12-14T15:55:43.416Z,28.75
2022-12-14T15:58:00.820Z,25.85
2022-12-14T16:00:17.859Z,26.92
2022-12-14T16:02:34.906Z,26.35
2022-12-14T16:04:52.323Z,27.95
2022-12-14T16:07:10.026Z,33.90
2022-12-14T16:09:27.120Z,36.00
2022-12-14T16:11:44.151Z,33.97
2022-12-14T16:14:01.090Z,35.63
2022-12-14T16:16:18.788Z,36.13
2022-12-14T16:18:35.882Z,37.95
2022-12-14T16:20:52.873Z,34.22
2022-12-14T16:23:11.769Z,36.10
2022-12-14T16:25:29.555Z,33.42
2022-12-14T16:27:46.811Z,34.28
2022-12-14T16:30:08.452Z,35.13
2022-12-14T16:32:25.802Z,39.20
2022-12-14T16:34:42.760Z,34.50
2022-12-14T16:37:32.246Z,32.75
2022-12-14T16:39:37.011Z,28.92
2022-12-14T16:41:54.311Z,30.58
2022-12-14T16:44:11.268Z,32.17
2022-12-14T16:46:28.563Z,35.17
2022-12-14T16:48:45.587Z,32.95
2022-12-14T16:51:14.497Z,37.55
2022-12-14T16:53:34.984Z,36.10
2022-12-14T16:55:53.422Z,36.13
2022-12-14T16:58:10.580Z,35.53
2022-12-14T17:00:27.784Z,34.67
2022-12-14T17:02:45.302Z,34.58
2022-12-14T17:05:02.389Z,35.55
2022-12-14T17:07:19.430Z,36.10
2022-12-14T17:09:36.455Z,31.08
2022-12-14T17:11:53.464Z,30.80
2022-12-14T17:14:10.329Z,36.42
2022-12-14T17:16:27.414Z,35.33
2022-12-14T17:18:44.471Z,34.33
2022-12-14T17:21:01.774Z,34.47
2022-12-14T17:23:18.768Z,37.50
2022-12-14T17:25:36.081Z,32.65
2022-12-14T17:27:54.285Z,35.90
2022-12-14T17:30:11.402Z,32.45
2022-12-14T17:32:28.691Z,31.70
2022-12-14T17:34:45.937Z,32.03
2022-12-14T17:37:02.926Z,34.10
2022-12-14T17:39:20.799Z,35.72
2022-12-14T17:41:38.011Z,35.17
2022-12-14T17:43:56.959Z,35.78
2022-12-14T17:46:15.752Z,46.30
2022-12-14T17:48:33.060Z,40.13
2022-12-14T17:50:50.042Z,36.45
2022-12-14T17:53:07.065Z,30.15
2022-12-14T17:55:24.315Z,30.55
2022-12-14T17:57:41.609Z,30.10
2022-12-14T17:59:58.556Z,32.55
2022-12-14T18:02:16.700Z,34.75
2022-12-14T18:04:34.155Z,33.15
2022-12-14T18:06:51.459Z,31.65
2022-12-14T18:09:08.492Z,33.13
2022-12-14T18:11:25.483Z,39.40
2022-12-14T18:13:42.499Z,33.53
2022-12-14T18:15:59.461Z,31.05
2022-12-14T18:18:16.402Z,35.65
2022-12-14T18:20:33.642Z,32.33
2022-12-14T18:22:50.700Z,31.55
2022-12-14T18:25:07.639Z,31.42
2022-12-14T18:27:24.716Z,34.30
2022-12-14T18:29:41.750Z,36.40
2022-12-14T18:31:58.855Z,42.55
2022-12-14T18:34:16.231Z,36.65
2022-12-14T18:36:33.273Z,36.45
2022-12-14T18:38:50.193Z,38.20
2022-12-14T18:41:07.395Z,38.95
2022-12-14T18:43:24.691Z,37.00
2022-12-14T18:45:41.915Z,33.30
2022-12-14T18:47:59.222Z,32.05
2022-12-14T18:50:16.273Z,30.88
2022-12-14T18:52:33.566Z,30.63
2022-12-14T18:54:50.612Z,29.95
2022-12-14T18:57:07.597Z,34.75
2022-12-14T18:59:24.873Z,32.17
2022-12-14T19:01:42.895Z,34.22
2022-12-14T19:03:59.988Z,31.48
2022-12-14T19:08:53.945Z,29.25
2022-12-14T19:11:11.069Z,42.20
2022-12-14T19:13:28.403Z,34.85
2022-12-14T19:15:45.730Z,32.15
2022-12-14T19:18:03.081Z,30.65
2022-12-14T19:20:20.438Z,30.67
2022-12-14T19:22:37.359Z,28.83
2022-12-14T19:24:54.419Z,33.60
2022-12-14T19:27:11.678Z,33.75
2022-12-14T19:29:28.970Z,32.40
2022-12-14T19:31:46.187Z,32.75
2022-12-14T19:34:03.279Z,29.98
2022-12-14T19:36:20.593Z,31.67
2022-12-14T19:38:37.634Z,30.77
2022-12-14T19:40:54.542Z,33.13
2022-12-14T19:43:11.559Z,31.33
2022-12-14T19:45:28.439Z,32.45
2022-12-14T19:47:45.464Z,29.55
2022-12-14T19:50:02.516Z,32.65
2022-12-14T19:52:19.724Z,31.60
2022-12-14T19:54:36.965Z,36.90
2022-12-14T19:56:54.907Z,34.30
2022-12-14T19:59:11.878Z,31.80
2022-12-14T20:01:29.281Z,26.90
2022-12-14T20:03:46.416Z,30.65
2022-12-14T20:06:03.934Z,28.77
2022-12-14T20:08:21.226Z,29.10
2022-12-14T20:10:38.207Z,27.70
2022-12-14T20:12:55.142Z,29.15
2022-12-14T20:15:12.084Z,30.80
2022-12-14T20:17:29.060Z,29.50
2022-12-14T20:19:46.351Z,32.47
2022-12-14T20:22:03.280Z,33.63
2022-12-14T20:24:20.567Z,33.33
2022-12-14T20:26:37.621Z,27.85
2022-12-14T20:28:54.610Z,30.98
2022-12-14T20:31:12.617Z,30.45
2022-12-14T20:33:31.037Z,30.30
2022-12-14T20:35:48.262Z,29.10
2022-12-14T20:38:05.277Z,28.38
2022-12-14T20:40:22.232Z,28.92
2022-12-14T20:42:39.132Z,32.78
2022-12-14T20:44:56.157Z,29.58
2022-12-14T20:47:13.224Z,30.27
2022-12-14T20:49:30.304Z,30.50
2022-12-14T20:51:47.597Z,31.70
2022-12-14T20:54:04.646Z,28.13
2022-12-14T20:56:21.650Z,28.02
2022-12-14T20:58:38.680Z,34.28
2022-12-14T21:00:55.701Z,29.45
2022-12-14T21:03:12.921Z,32.00
2022-12-14T21:05:31.332Z,31.73
2022-12-14T21:07:48.390Z,30.55
2022-12-14T21:10:05.361Z,30.85
2022-12-14T21:12:22.710Z,29.92
2022-12-14T21:14:39.785Z,29.85
2022-12-14T21:16:56.731Z,29.92
2022-12-14T21:19:14.088Z,31.45
2022-12-14T21:21:31.076Z,30.55
2022-12-14T21:23:48.345Z,27.10
2022-12-14T21:26:06.626Z,32.08
2022-12-14T21:28:27.531Z,29.35
2022-12-14T21:30:48.937Z,28.42
2022-12-14T21:33:05.969Z,31.23
2022-12-14T21:35:22.864Z,34.33
2022-12-14T21:37:40.250Z,31.45
2022-12-14T21:39:57.232Z,32.00
2022-12-14T21:42:14.092Z,29.00
2022-12-14T21:44:31.201Z,28.23
2022-12-14T21:46:48.145Z,28.88
2022-12-14T21:49:05.314Z,29.38
2022-12-14T21:51:22.582Z,30.50
2022-12-14T21:53:40.020Z,31.80
2022-12-14T21:55:58.432Z,33.38
2022-12-14T21:58:15.419Z,32.53
2022-12-14T22:00:32.454Z,32.08
2022-12-14T22:02:49.690Z,29.48
2022-12-14T22:05:06.777Z,30.17
2022-12-14T22:07:23.762Z,26.20
2022-12-14T22:09:40.754Z,29.42
2022-12-14T22:11:58.642Z,27.20
2022-12-14T22:14:15.569Z,30.52
2022-12-14T22:16:32.626Z,30.20
2022-12-14T22:18:49.609Z,29.10
2022-12-14T22:21:06.927Z,29.13
2022-12-14T22:23:24.253Z,30.40
2022-12-14T22:25:41.206Z,29.67
2022-12-14T22:27:58.453Z,26.92
2022-12-14T22:30:15.506Z,28.70
2022-12-14T22:32:32.474Z,30.00
2022-12-14T22:34:49.352Z,28.05
2022-12-14T22:37:06.322Z,31.65
2022-12-14T22:39:23.283Z,29.70
2022-12-14T22:41:41.550Z,30.63
2022-12-14T22:43:59.521Z,31.27
2022-12-14T22:46:16.608Z,32.08
2022-12-14T22:48:33.647Z,27.27
2022-12-14T22:50:51.015Z,27.55
2022-12-14T22:53:07.932Z,28.65
2022-12-14T22:55:24.941Z,29.20
2022-12-14T22:57:41.946Z,30.05
2022-12-14T22:59:58.994Z,31.77
2022-12-14T23:02:16.331Z,29.10
2022-12-14T23:04:33.470Z,34.60
2022-12-14T23:06:51.597Z,30.95
2022-12-14T23:09:08.679Z,30.45
2022-12-14T23:11:27.584Z,29.70
2022-12-14T23:13:44.562Z,30.73
2022-12-14T23:16:01.462Z,27.73
2022-12-14T23:18:18.626Z,31.95
2022-12-14T23:20:35.632Z,29.05
2022-12-14T23:22:52.591Z,28.67
2022-12-14T23:25:09.934Z,31.60
2022-12-14T23:27:27.277Z,28.27
2022-12-14T23:29:44.283Z,29.13
2022-12-14T23:32:01.361Z,27.48
2022-12-14T23:34:18.457Z,29.88
2022-12-14T23:36:35.439Z,29.83
2022-12-14T23:38:52.402Z,28.38
2022-12-14T23:41:09.331Z,28.58
2022-12-14T23:43:26.362Z,26.98
2022-12-14T23:45:44.474Z,29.42
2022-12-14T23:48:01.467Z,30.73
2022-12-14T23:50:18.399Z,29.15
2022-12-14T23:52:35.341Z,28.55
2022-12-14T23:54:52.426Z,26.17
2022-12-14T23:57:09.626Z,29.13
2022-12-14T23:59:31.992Z,26.40
